sensor_id;sensor_type;location;lat;lon;timestamp;P1;durP1;ratioP1;P2;durP2;ratioP2
75890;SDS011;64571;47.512;19.054;2023-12-20T00:01:31;34.73;;;14.20;;
75890;SDS011;64571;47.512;19.054;2023-12-20T00:04:34;45.43;;;15.00;;
75890;SDS011;64571;47.512;19.054;2023-12-20T00:07:37;49.08;;;16.40;;
75890;SDS011;64571;47.512;19.054;2023-12-20T00:10:40;46.17;;;15.52;;
75890;SDS011;64571;47.512;19.054;2023-12-20T00:13:43;40.40;;;14.40;;
75890;SDS011;64571;47.512;19.054;2023-12-20T00:16:49;44.70;;;13.88;;
75890;SDS011;64571;47.512;19.054;2023-12-20T00:19:51;36.50;;;14.67;;
75890;SDS011;64571;47.512;19.054;2023-12-20T00:22:55;43.25;;;15.65;;
75890;SDS011;64571;47.512;19.054;2023-12-20T00:25:59;43.08;;;14.07;;
75890;SDS011;64571;47.512;19.054;2023-12-20T00:29:02;40.10;;;13.65;;
75890;SDS011;64571;47.512;19.054;2023-12-20T00:32:05;38.27;;;15.07;;
75890;SDS011;64571;47.512;19.054;2023-12-20T00:35:08;44.37;;;16.23;;
75890;SDS011;64571;47.512;19.054;2023-12-20T00:38:10;38.97;;;13.95;;
75890;SDS011;64571;47.512;19.054;2023-12-20T00:41:13;38.63;;;13.32;;
75890;SDS011;64571;47.512;19.054;2023-12-20T00:44:16;37.45;;;14.45;;
75890;SDS011;64571;47.512;19.054;2023-12-20T00:47:19;38.83;;;15.17;;
75890;SDS011;64571;47.512;19.054;2023-12-20T00:50:21;39.83;;;13.90;;
75890;SDS011;64571;47.512;19.054;2023-12-20T00:53:25;33.65;;;13.57;;
75890;SDS011;64571;47.512;19.054;2023-12-20T00:56:28;38.92;;;15.52;;
75890;SDS011;64571;47.512;19.054;2023-12-20T00:59:30;43.67;;;14.65;;
75890;SDS011;64571;47.512;19.054;2023-12-20T01:02:33;41.40;;;13.23;;
75890;SDS011;64571;47.512;19.054;2023-12-20T01:05:36;38.70;;;14.07;;
75890;SDS011;64571;47.512;19.054;2023-12-20T01:08:38;39.25;;;14.65;;
75890;SDS011;64571;47.512;19.054;2023-12-20T01:11:41;45.10;;;16.45;;
75890;SDS011;64571;47.512;19.054;2023-12-20T01:14:43;52.65;;;19.90;;
75890;SDS011;64571;47.512;19.054;2023-12-20T01:17:46;42.20;;;14.73;;
75890;SDS011;64571;47.512;19.054;2023-12-20T01:20:49;50.80;;;17.87;;
75890;SDS011;64571;47.512;19.054;2023-12-20T01:23:52;44.33;;;13.20;;
75890;SDS011;64571;47.512;19.054;2023-12-20T01:26:54;45.53;;;17.60;;
75890;SDS011;64571;47.512;19.054;2023-12-20T01:29:57;35.30;;;13.98;;
75890;SDS011;64571;47.512;19.054;2023-12-20T01:33:00;41.00;;;13.27;;
75890;SDS011;64571;47.512;19.054;2023-12-20T01:36:04;34.27;;;12.73;;
75890;SDS011;64571;47.512;19.054;2023-12-20T01:39:06;37.15;;;11.70;;
75890;SDS011;64571;47.512;19.054;2023-12-20T01:42:26;44.95;;;16.42;;
75890;SDS011;64571;47.512;19.054;2023-12-20T01:45:28;42.90;;;15.77;;
75890;SDS011;64571;47.512;19.054;2023-12-20T01:48:31;46.67;;;18.47;;
75890;SDS011;64571;47.512;19.054;2023-12-20T01:51:34;43.57;;;16.93;;
75890;SDS011;64571;47.512;19.054;2023-12-20T01:54:38;44.78;;;17.90;;
75890;SDS011;64571;47.512;19.054;2023-12-20T01:57:42;47.05;;;19.15;;
75890;SDS011;64571;47.512;19.054;2023-12-20T02:00:45;43.75;;;15.90;;
75890;SDS011;64571;47.512;19.054;2023-12-20T02:03:49;43.37;;;13.30;;
75890;SDS011;64571;47.512;19.054;2023-12-20T02:06:52;36.80;;;13.63;;
75890;SDS011;64571;47.512;19.054;2023-12-20T02:09:55;39.17;;;13.60;;
75890;SDS011;64571;47.512;19.054;2023-12-20T02:12:58;33.80;;;12.43;;
75890;SDS011;64571;47.512;19.054;2023-12-20T02:16:00;42.92;;;14.02;;
75890;SDS011;64571;47.512;19.054;2023-12-20T02:19:04;38.10;;;12.07;;
75890;SDS011;64571;47.512;19.054;2023-12-20T02:22:14;30.17;;;10.80;;
75890;SDS011;64571;47.512;19.054;2023-12-20T02:25:17;44.65;;;14.40;;
75890;SDS011;64571;47.512;19.054;2023-12-20T02:28:20;34.72;;;10.60;;
75890;SDS011;64571;47.512;19.054;2023-12-20T02:31:25;28.90;;;12.00;;
75890;SDS011;64571;47.512;19.054;2023-12-20T02:34:27;32.30;;;11.50;;
75890;SDS011;64571;47.512;19.054;2023-12-20T02:37:30;35.13;;;12.70;;
75890;SDS011;64571;47.512;19.054;2023-12-20T02:40:32;37.03;;;12.82;;
75890;SDS011;64571;47.512;19.054;2023-12-20T02:43:35;39.95;;;13.70;;
75890;SDS011;64571;47.512;19.054;2023-12-20T02:46:38;40.38;;;13.30;;
75890;SDS011;64571;47.512;19.054;2023-12-20T02:49:40;34.30;;;12.07;;
75890;SDS011;64571;47.512;19.054;2023-12-20T02:52:46;41.97;;;13.87;;
75890;SDS011;64571;47.512;19.054;2023-12-20T02:55:49;46.25;;;15.07;;
75890;SDS011;64571;47.512;19.054;2023-12-20T02:58:51;40.60;;;14.63;;
75890;SDS011;64571;47.512;19.054;2023-12-20T03:01:54;43.60;;;17.10;;
75890;SDS011;64571;47.512;19.054;2023-12-20T03:04:57;47.88;;;18.27;;
75890;SDS011;64571;47.512;19.054;2023-12-20T03:08:02;44.53;;;14.77;;
75890;SDS011;64571;47.512;19.054;2023-12-20T03:11:05;42.70;;;15.50;;
75890;SDS011;64571;47.512;19.054;2023-12-20T03:14:07;47.67;;;17.33;;
75890;SDS011;64571;47.512;19.054;2023-12-20T03:17:10;48.08;;;16.05;;
75890;SDS011;64571;47.512;19.054;2023-12-20T03:20:13;41.07;;;13.97;;
75890;SDS011;64571;47.512;19.054;2023-12-20T03:23:15;46.57;;;14.47;;
75890;SDS011;64571;47.512;19.054;2023-12-20T03:26:18;37.30;;;13.57;;
75890;SDS011;64571;47.512;19.054;2023-12-20T03:29:21;38.83;;;13.15;;
75890;SDS011;64571;47.512;19.054;2023-12-20T03:32:24;43.00;;;13.88;;
75890;SDS011;64571;47.512;19.054;2023-12-20T03:35:26;35.05;;;12.43;;
75890;SDS011;64571;47.512;19.054;2023-12-20T03:38:29;53.70;;;14.77;;
75890;SDS011;64571;47.512;19.054;2023-12-20T03:41:31;44.92;;;13.50;;
75890;SDS011;64571;47.512;19.054;2023-12-20T03:44:34;39.63;;;14.18;;
75890;SDS011;64571;47.512;19.054;2023-12-20T03:47:36;40.90;;;13.85;;
75890;SDS011;64571;47.512;19.054;2023-12-20T03:50:39;44.53;;;15.43;;
75890;SDS011;64571;47.512;19.054;2023-12-20T03:53:42;42.77;;;14.00;;
75890;SDS011;64571;47.512;19.054;2023-12-20T03:56:44;41.47;;;16.98;;
75890;SDS011;64571;47.512;19.054;2023-12-20T03:59:47;52.80;;;16.90;;
75890;SDS011;64571;47.512;19.054;2023-12-20T04:02:50;40.83;;;14.85;;
75890;SDS011;64571;47.512;19.054;2023-12-20T04:05:53;39.37;;;14.47;;
75890;SDS011;64571;47.512;19.054;2023-12-20T04:08:55;46.33;;;14.73;;
75890;SDS011;64571;47.512;19.054;2023-12-20T04:11:58;44.20;;;15.52;;
75890;SDS011;64571;47.512;19.054;2023-12-20T04:15:00;36.95;;;12.95;;
75890;SDS011;64571;47.512;19.054;2023-12-20T04:18:03;43.03;;;13.35;;
75890;SDS011;64571;47.512;19.054;2023-12-20T04:21:06;41.47;;;15.70;;
75890;SDS011;64571;47.512;19.054;2023-12-20T04:24:09;42.50;;;14.63;;
75890;SDS011;64571;47.512;19.054;2023-12-20T04:27:12;48.72;;;15.73;;
75890;SDS011;64571;47.512;19.054;2023-12-20T04:30:15;45.05;;;15.57;;
75890;SDS011;64571;47.512;19.054;2023-12-20T04:33:17;34.40;;;12.93;;
75890;SDS011;64571;47.512;19.054;2023-12-20T04:36:20;39.73;;;14.10;;
75890;SDS011;64571;47.512;19.054;2023-12-20T04:39:22;41.90;;;15.53;;
75890;SDS011;64571;47.512;19.054;2023-12-20T04:42:25;44.83;;;15.73;;
75890;SDS011;64571;47.512;19.054;2023-12-20T04:45:28;38.80;;;14.35;;
75890;SDS011;64571;47.512;19.054;2023-12-20T04:48:30;38.08;;;12.80;;
75890;SDS011;64571;47.512;19.054;2023-12-20T04:51:33;41.27;;;14.30;;
75890;SDS011;64571;47.512;19.054;2023-12-20T04:54:36;39.57;;;13.20;;
75890;SDS011;64571;47.512;19.054;2023-12-20T04:57:39;40.15;;;13.80;;
75890;SDS011;64571;47.512;19.054;2023-12-20T05:00:42;34.80;;;12.95;;
75890;SDS011;64571;47.512;19.054;2023-12-20T05:03:44;41.05;;;13.35;;
75890;SDS011;64571;47.512;19.054;2023-12-20T05:06:47;41.87;;;13.93;;
75890;SDS011;64571;47.512;19.054;2023-12-20T05:09:49;43.03;;;14.97;;
75890;SDS011;64571;47.512;19.054;2023-12-20T05:12:52;36.50;;;13.77;;
75890;SDS011;64571;47.512;19.054;2023-12-20T05:15:55;38.72;;;12.60;;
75890;SDS011;64571;47.512;19.054;2023-12-20T05:18:58;39.70;;;14.27;;
75890;SDS011;64571;47.512;19.054;2023-12-20T05:22:03;35.07;;;13.40;;
75890;SDS011;64571;47.512;19.054;2023-12-20T05:25:06;33.83;;;12.63;;
75890;SDS011;64571;47.512;19.054;2023-12-20T05:28:08;43.65;;;14.95;;
75890;SDS011;64571;47.512;19.054;2023-12-20T05:31:11;39.45;;;13.70;;
75890;SDS011;64571;47.512;19.054;2023-12-20T05:34:13;39.03;;;14.45;;
75890;SDS011;64571;47.512;19.054;2023-12-20T05:37:16;37.00;;;14.20;;
75890;SDS011;64571;47.512;19.054;2023-12-20T05:40:19;43.60;;;15.40;;
75890;SDS011;64571;47.512;19.054;2023-12-20T05:43:22;36.65;;;14.02;;
75890;SDS011;64571;47.512;19.054;2023-12-20T05:46:24;34.72;;;13.18;;
75890;SDS011;64571;47.512;19.054;2023-12-20T05:49:28;47.65;;;15.05;;
75890;SDS011;64571;47.512;19.054;2023-12-20T05:52:30;43.40;;;14.47;;
75890;SDS011;64571;47.512;19.054;2023-12-20T05:55:33;47.00;;;14.67;;
75890;SDS011;64571;47.512;19.054;2023-12-20T05:58:36;44.60;;;16.65;;
75890;SDS011;64571;47.512;19.054;2023-12-20T06:01:40;41.83;;;15.27;;
75890;SDS011;64571;47.512;19.054;2023-12-20T06:04:43;42.97;;;15.52;;
75890;SDS011;64571;47.512;19.054;2023-12-20T06:07:46;46.17;;;17.40;;
75890;SDS011;64571;47.512;19.054;2023-12-20T06:10:51;42.37;;;16.60;;
75890;SDS011;64571;47.512;19.054;2023-12-20T06:13:53;39.85;;;15.48;;
75890;SDS011;64571;47.512;19.054;2023-12-20T06:16:57;46.78;;;16.52;;
75890;SDS011;64571;47.512;19.054;2023-12-20T06:20:00;42.10;;;16.87;;
75890;SDS011;64571;47.512;19.054;2023-12-20T06:23:03;52.60;;;19.40;;
75890;SDS011;64571;47.512;19.054;2023-12-20T06:26:08;48.37;;;15.70;;
75890;SDS011;64571;47.512;19.054;2023-12-20T06:29:11;48.85;;;17.15;;
75890;SDS011;64571;47.512;19.054;2023-12-20T06:32:14;42.47;;;15.23;;
75890;SDS011;64571;47.512;19.054;2023-12-20T06:35:17;52.78;;;18.92;;
75890;SDS011;64571;47.512;19.054;2023-12-20T06:38:20;47.97;;;16.27;;
75890;SDS011;64571;47.512;19.054;2023-12-20T06:41:23;50.33;;;18.67;;
75890;SDS011;64571;47.512;19.054;2023-12-20T06:44:26;48.38;;;17.15;;
75890;SDS011;64571;47.512;19.054;2023-12-20T06:47:29;45.90;;;17.27;;
75890;SDS011;64571;47.512;19.054;2023-12-20T06:50:32;39.38;;;13.32;;
75890;SDS011;64571;47.512;19.054;2023-12-20T06:53:34;41.53;;;17.00;;
75890;SDS011;64571;47.512;19.054;2023-12-20T06:56:37;52.17;;;17.10;;
75890;SDS011;64571;47.512;19.054;2023-12-20T06:59:40;51.28;;;18.50;;
75890;SDS011;64571;47.512;19.054;2023-12-20T07:02:43;38.35;;;15.82;;
75890;SDS011;64571;47.512;19.054;2023-12-20T07:05:46;48.13;;;17.55;;
75890;SDS011;64571;47.512;19.054;2023-12-20T07:08:49;42.43;;;15.83;;
75890;SDS011;64571;47.512;19.054;2023-12-20T07:11:52;48.40;;;16.73;;
75890;SDS011;64571;47.512;19.054;2023-12-20T07:14:54;45.95;;;16.67;;
75890;SDS011;64571;47.512;19.054;2023-12-20T07:17:58;47.00;;;17.55;;
75890;SDS011;64571;47.512;19.054;2023-12-20T07:21:03;40.63;;;16.48;;
75890;SDS011;64571;47.512;19.054;2023-12-20T07:24:06;45.87;;;19.47;;
75890;SDS011;64571;47.512;19.054;2023-12-20T07:27:08;49.47;;;17.23;;
75890;SDS011;64571;47.512;19.054;2023-12-20T07:30:12;54.33;;;18.77;;
75890;SDS011;64571;47.512;19.054;2023-12-20T07:33:14;51.80;;;20.02;;
75890;SDS011;64571;47.512;19.054;2023-12-20T07:36:19;58.87;;;21.10;;
75890;SDS011;64571;47.512;19.054;2023-12-20T07:39:22;42.33;;;15.90;;
75890;SDS011;64571;47.512;19.054;2023-12-20T07:42:25;42.67;;;15.17;;
75890;SDS011;64571;47.512;19.054;2023-12-20T07:45:27;40.00;;;14.93;;
75890;SDS011;64571;47.512;19.054;2023-12-20T07:48:30;47.67;;;17.05;;
75890;SDS011;64571;47.512;19.054;2023-12-20T07:51:32;41.65;;;14.55;;
75890;SDS011;64571;47.512;19.054;2023-12-20T07:54:35;38.07;;;13.90;;
75890;SDS011;64571;47.512;19.054;2023-12-20T07:57:38;41.73;;;16.07;;
75890;SDS011;64571;47.512;19.054;2023-12-20T08:00:41;40.08;;;15.63;;
75890;SDS011;64571;47.512;19.054;2023-12-20T08:03:44;46.75;;;16.20;;
75890;SDS011;64571;47.512;19.054;2023-12-20T08:06:46;40.38;;;15.65;;
75890;SDS011;64571;47.512;19.054;2023-12-20T08:09:49;42.20;;;14.98;;
75890;SDS011;64571;47.512;19.054;2023-12-20T08:12:53;34.10;;;13.87;;
75890;SDS011;64571;47.512;19.054;2023-12-20T08:15:56;43.42;;;16.42;;
75890;SDS011;64571;47.512;19.054;2023-12-20T08:18:58;36.33;;;15.00;;
75890;SDS011;64571;47.512;19.054;2023-12-20T08:22:01;42.20;;;19.05;;
75890;SDS011;64571;47.512;19.054;2023-12-20T08:25:04;36.95;;;18.85;;
75890;SDS011;64571;47.512;19.054;2023-12-20T08:28:07;49.70;;;18.03;;
75890;SDS011;64571;47.512;19.054;2023-12-20T08:31:13;44.72;;;17.55;;
75890;SDS011;64571;47.512;19.054;2023-12-20T08:34:19;47.62;;;19.20;;
75890;SDS011;64571;47.512;19.054;2023-12-20T08:37:22;41.28;;;15.95;;
75890;SDS011;64571;47.512;19.054;2023-12-20T08:40:25;43.60;;;17.27;;
75890;SDS011;64571;47.512;19.054;2023-12-20T08:43:28;38.53;;;16.23;;
75890;SDS011;64571;47.512;19.054;2023-12-20T08:46:31;40.53;;;16.80;;
75890;SDS011;64571;47.512;19.054;2023-12-20T08:49:33;45.60;;;15.60;;
75890;SDS011;64571;47.512;19.054;2023-12-20T08:52:36;41.15;;;16.87;;
75890;SDS011;64571;47.512;19.054;2023-12-20T08:55:39;41.53;;;17.13;;
75890;SDS011;64571;47.512;19.054;2023-12-20T08:58:42;33.50;;;14.83;;
75890;SDS011;64571;47.512;19.054;2023-12-20T09:01:45;49.05;;;18.73;;
75890;SDS011;64571;47.512;19.054;2023-12-20T09:04:49;48.70;;;18.08;;
75890;SDS011;64571;47.512;19.054;2023-12-20T09:07:52;47.58;;;18.10;;
75890;SDS011;64571;47.512;19.054;2023-12-20T09:10:55;43.23;;;17.77;;
75890;SDS011;64571;47.512;19.054;2023-12-20T09:13:58;48.83;;;19.00;;
75890;SDS011;64571;47.512;19.054;2023-12-20T09:17:01;53.58;;;20.73;;
75890;SDS011;64571;47.512;19.054;2023-12-20T09:20:05;50.05;;;17.85;;
75890;SDS011;64571;47.512;19.054;2023-12-20T09:23:10;45.95;;;19.55;;
75890;SDS011;64571;47.512;19.054;2023-12-20T09:26:13;51.30;;;21.40;;
75890;SDS011;64571;47.512;19.054;2023-12-20T09:29:16;55.27;;;19.73;;
75890;SDS011;64571;47.512;19.054;2023-12-20T09:32:19;50.38;;;18.33;;
75890;SDS011;64571;47.512;19.054;2023-12-20T09:35:26;50.50;;;20.15;;
75890;SDS011;64571;47.512;19.054;2023-12-20T09:38:29;48.17;;;18.67;;
75890;SDS011;64571;47.512;19.054;2023-12-20T09:41:32;49.65;;;20.62;;
75890;SDS011;64571;47.512;19.054;2023-12-20T09:44:40;50.97;;;19.00;;
75890;SDS011;64571;47.512;19.054;2023-12-20T09:47:54;50.75;;;19.23;;
75890;SDS011;64571;47.512;19.054;2023-12-20T09:50:58;52.58;;;19.60;;
75890;SDS011;64571;47.512;19.054;2023-12-20T09:54:05;53.17;;;20.80;;
75890;SDS011;64571;47.512;19.054;2023-12-20T09:57:08;55.30;;;21.35;;
75890;SDS011;64571;47.512;19.054;2023-12-20T10:00:12;55.93;;;20.67;;
75890;SDS011;64571;47.512;19.054;2023-12-20T10:03:16;46.88;;;19.58;;
75890;SDS011;64571;47.512;19.054;2023-12-20T10:06:22;50.05;;;20.52;;
75890;SDS011;64571;47.512;19.054;2023-12-20T10:09:25;50.53;;;20.37;;
75890;SDS011;64571;47.512;19.054;2023-12-20T10:12:31;55.57;;;21.77;;
75890;SDS011;64571;47.512;19.054;2023-12-20T10:15:34;47.03;;;21.77;;
75890;SDS011;64571;47.512;19.054;2023-12-20T10:18:37;56.58;;;23.48;;
75890;SDS011;64571;47.512;19.054;2023-12-20T10:21:41;55.65;;;26.40;;
75890;SDS011;64571;47.512;19.054;2023-12-20T10:24:45;64.95;;;27.08;;
75890;SDS011;64571;47.512;19.054;2023-12-20T10:27:50;54.83;;;25.65;;
75890;SDS011;64571;47.512;19.054;2023-12-20T10:31:10;58.67;;;24.23;;
75890;SDS011;64571;47.512;19.054;2023-12-20T10:34:28;55.50;;;24.40;;
75890;SDS011;64571;47.512;19.054;2023-12-20T10:37:30;57.45;;;26.65;;
75890;SDS011;64571;47.512;19.054;2023-12-20T10:40:34;59.95;;;26.25;;
75890;SDS011;64571;47.512;19.054;2023-12-20T10:43:40;53.13;;;23.30;;
75890;SDS011;64571;47.512;19.054;2023-12-20T10:46:43;57.73;;;25.07;;
75890;SDS011;64571;47.512;19.054;2023-12-20T10:49:52;55.70;;;22.90;;
75890;SDS011;64571;47.512;19.054;2023-12-20T10:52:56;53.25;;;22.00;;
75890;SDS011;64571;47.512;19.054;2023-12-20T10:56:00;45.97;;;21.30;;
75890;SDS011;64571;47.512;19.054;2023-12-20T10:59:05;56.57;;;23.37;;
75890;SDS011;64571;47.512;19.054;2023-12-20T11:02:12;56.37;;;24.47;;
75890;SDS011;64571;47.512;19.054;2023-12-20T11:05:36;64.28;;;24.50;;
75890;SDS011;64571;47.512;19.054;2023-12-20T11:09:35;61.50;;;26.40;;
75890;SDS011;64571;47.512;19.054;2023-12-20T11:12:28;70.05;;;27.20;;
75890;SDS011;64571;47.512;19.054;2023-12-20T11:15:40;83.62;;;28.80;;
75890;SDS011;64571;47.512;19.054;2023-12-20T11:18:44;68.40;;;26.90;;
75890;SDS011;64571;47.512;19.054;2023-12-20T11:21:47;73.32;;;29.10;;
75890;SDS011;64571;47.512;19.054;2023-12-20T11:24:54;65.37;;;26.15;;
75890;SDS011;64571;47.512;19.054;2023-12-20T11:28:10;70.40;;;28.38;;
75890;SDS011;64571;47.512;19.054;2023-12-20T11:31:15;75.32;;;28.10;;
75890;SDS011;64571;47.512;19.054;2023-12-20T11:34:18;62.73;;;27.57;;
75890;SDS011;64571;47.512;19.054;2023-12-20T11:37:22;68.65;;;25.88;;
75890;SDS011;64571;47.512;19.054;2023-12-20T11:40:31;65.72;;;28.35;;
75890;SDS011;64571;47.512;19.054;2023-12-20T11:43:37;62.83;;;24.90;;
75890;SDS011;64571;47.512;19.054;2023-12-20T11:46:41;71.77;;;27.77;;
75890;SDS011;64571;47.512;19.054;2023-12-20T11:49:44;63.03;;;28.37;;
75890;SDS011;64571;47.512;19.054;2023-12-20T11:52:49;70.95;;;29.02;;
75890;SDS011;64571;47.512;19.054;2023-12-20T11:55:54;56.40;;;24.17;;
75890;SDS011;64571;47.512;19.054;2023-12-20T11:58:56;65.87;;;29.80;;
75890;SDS011;64571;47.512;19.054;2023-12-20T12:02:17;67.32;;;28.17;;
75890;SDS011;64571;47.512;19.054;2023-12-20T12:05:21;63.57;;;26.20;;
75890;SDS011;64571;47.512;19.054;2023-12-20T12:08:26;65.65;;;25.80;;
75890;SDS011;64571;47.512;19.054;2023-12-20T12:11:34;65.47;;;27.37;;
75890;SDS011;64571;47.512;19.054;2023-12-20T12:14:37;63.28;;;24.52;;
75890;SDS011;64571;47.512;19.054;2023-12-20T12:17:42;54.95;;;21.90;;
75890;SDS011;64571;47.512;19.054;2023-12-20T12:20:45;52.47;;;21.30;;
75890;SDS011;64571;47.512;19.054;2023-12-20T12:23:48;41.78;;;18.42;;
75890;SDS011;64571;47.512;19.054;2023-12-20T12:26:51;26.80;;;13.68;;
75890;SDS011;64571;47.512;19.054;2023-12-20T12:30:01;28.15;;;11.73;;
75890;SDS011;64571;47.512;19.054;2023-12-20T12:33:05;20.60;;;8.70;;
75890;SDS011;64571;47.512;19.054;2023-12-20T12:36:09;19.87;;;9.73;;
75890;SDS011;64571;47.512;19.054;2023-12-20T12:39:15;20.52;;;9.45;;
75890;SDS011;64571;47.512;19.054;2023-12-20T12:42:20;21.12;;;9.40;;
75890;SDS011;64571;47.512;19.054;2023-12-20T12:45:24;18.70;;;8.57;;
75890;SDS011;64571;47.512;19.054;2023-12-20T12:48:28;20.25;;;10.25;;
75890;SDS011;64571;47.512;19.054;2023-12-20T12:51:31;23.93;;;10.33;;
75890;SDS011;64571;47.512;19.054;2023-12-20T12:54:34;22.13;;;10.23;;
75890;SDS011;64571;47.512;19.054;2023-12-20T12:57:36;21.87;;;9.63;;
75890;SDS011;64571;47.512;19.054;2023-12-20T13:00:39;27.42;;;10.45;;
75890;SDS011;64571;47.512;19.054;2023-12-20T13:03:42;20.23;;;10.30;;
75890;SDS011;64571;47.512;19.054;2023-12-20T13:06:44;25.47;;;12.23;;
75890;SDS011;64571;47.512;19.054;2023-12-20T13:09:47;27.37;;;12.37;;
75890;SDS011;64571;47.512;19.054;2023-12-20T13:12:50;24.45;;;11.90;;
75890;SDS011;64571;47.512;19.054;2023-12-20T13:15:54;22.50;;;11.35;;
75890;SDS011;64571;47.512;19.054;2023-12-20T13:18:57;24.77;;;11.27;;
75890;SDS011;64571;47.512;19.054;2023-12-20T13:22:02;21.00;;;9.67;;
75890;SDS011;64571;47.512;19.054;2023-12-20T13:25:05;20.20;;;9.35;;
75890;SDS011;64571;47.512;19.054;2023-12-20T13:28:08;23.23;;;10.98;;
75890;SDS011;64571;47.512;19.054;2023-12-20T13:31:11;20.12;;;10.52;;
75890;SDS011;64571;47.512;19.054;2023-12-20T13:34:14;21.33;;;10.05;;
75890;SDS011;64571;47.512;19.054;2023-12-20T13:37:19;19.30;;;8.87;;
75890;SDS011;64571;47.512;19.054;2023-12-20T13:40:23;20.70;;;8.65;;
75890;SDS011;64571;47.512;19.054;2023-12-20T13:43:26;20.65;;;8.60;;
75890;SDS011;64571;47.512;19.054;2023-12-20T13:46:29;17.70;;;8.45;;
75890;SDS011;64571;47.512;19.054;2023-12-20T13:49:32;18.17;;;8.98;;
75890;SDS011;64571;47.512;19.054;2023-12-20T13:52:34;18.53;;;8.40;;
75890;SDS011;64571;47.512;19.054;2023-12-20T13:55:41;19.27;;;9.50;;
75890;SDS011;64571;47.512;19.054;2023-12-20T13:58:45;18.65;;;8.50;;
75890;SDS011;64571;47.512;19.054;2023-12-20T14:01:49;20.02;;;8.63;;
75890;SDS011;64571;47.512;19.054;2023-12-20T14:04:53;18.10;;;8.00;;
75890;SDS011;64571;47.512;19.054;2023-12-20T14:07:55;23.43;;;9.63;;
75890;SDS011;64571;47.512;19.054;2023-12-20T14:11:02;23.90;;;10.00;;
75890;SDS011;64571;47.512;19.054;2023-12-20T14:14:04;19.25;;;9.55;;
75890;SDS011;64571;47.512;19.054;2023-12-20T14:17:07;19.35;;;10.32;;
75890;SDS011;64571;47.512;19.054;2023-12-20T14:20:11;19.02;;;9.23;;
75890;SDS011;64571;47.512;19.054;2023-12-20T14:23:18;21.57;;;11.27;;
75890;SDS011;64571;47.512;19.054;2023-12-20T14:26:21;20.02;;;10.05;;
75890;SDS011;64571;47.512;19.054;2023-12-20T14:29:24;19.02;;;9.57;;
75890;SDS011;64571;47.512;19.054;2023-12-20T14:32:28;21.33;;;10.48;;
75890;SDS011;64571;47.512;19.054;2023-12-20T14:35:31;20.20;;;10.40;;
75890;SDS011;64571;47.512;19.054;2023-12-20T14:38:34;23.83;;;10.37;;
75890;SDS011;64571;47.512;19.054;2023-12-20T14:41:37;20.80;;;9.35;;
75890;SDS011;64571;47.512;19.054;2023-12-20T14:44:40;18.92;;;10.05;;
75890;SDS011;64571;47.512;19.054;2023-12-20T14:47:43;17.92;;;8.43;;
75890;SDS011;64571;47.512;19.054;2023-12-20T14:50:47;15.82;;;8.15;;
75890;SDS011;64571;47.512;19.054;2023-12-20T14:53:50;19.63;;;9.90;;
75890;SDS011;64571;47.512;19.054;2023-12-20T14:56:53;14.57;;;7.62;;
75890;SDS011;64571;47.512;19.054;2023-12-20T14:59:56;17.83;;;7.25;;
75890;SDS011;64571;47.512;19.054;2023-12-20T15:02:59;15.80;;;7.72;;
75890;SDS011;64571;47.512;19.054;2023-12-20T15:06:02;15.40;;;7.05;;
75890;SDS011;64571;47.512;19.054;2023-12-20T15:09:05;16.30;;;7.40;;
75890;SDS011;64571;47.512;19.054;2023-12-20T15:12:08;17.30;;;8.30;;
75890;SDS011;64571;47.512;19.054;2023-12-20T15:15:11;18.02;;;8.35;;
75890;SDS011;64571;47.512;19.054;2023-12-20T15:18:14;17.92;;;7.37;;
75890;SDS011;64571;47.512;19.054;2023-12-20T15:21:17;17.02;;;7.53;;
75890;SDS011;64571;47.512;19.054;2023-12-20T15:24:20;18.53;;;9.13;;
75890;SDS011;64571;47.512;19.054;2023-12-20T15:27:29;16.17;;;7.90;;
75890;SDS011;64571;47.512;19.054;2023-12-20T15:30:32;17.23;;;7.45;;
75890;SDS011;64571;47.512;19.054;2023-12-20T15:33:35;15.65;;;8.18;;
75890;SDS011;64571;47.512;19.054;2023-12-20T15:36:38;17.05;;;8.05;;
75890;SDS011;64571;47.512;19.054;2023-12-20T15:39:41;17.47;;;8.47;;
75890;SDS011;64571;47.512;19.054;2023-12-20T15:42:45;20.08;;;8.95;;
75890;SDS011;64571;47.512;19.054;2023-12-20T15:45:47;17.85;;;8.07;;
75890;SDS011;64571;47.512;19.054;2023-12-20T15:48:50;18.45;;;8.27;;
75890;SDS011;64571;47.512;19.054;2023-12-20T15:51:54;17.42;;;8.45;;
75890;SDS011;64571;47.512;19.054;2023-12-20T15:54:57;19.97;;;9.20;;
75890;SDS011;64571;47.512;19.054;2023-12-20T15:58:01;21.25;;;8.50;;
75890;SDS011;64571;47.512;19.054;2023-12-20T16:01:04;18.87;;;9.45;;
75890;SDS011;64571;47.512;19.054;2023-12-20T16:04:07;17.30;;;8.35;;
75890;SDS011;64571;47.512;19.054;2023-12-20T16:07:09;17.50;;;8.75;;
75890;SDS011;64571;47.512;19.054;2023-12-20T16:10:13;17.30;;;7.27;;
75890;SDS011;64571;47.512;19.054;2023-12-20T16:13:15;17.10;;;7.82;;
75890;SDS011;64571;47.512;19.054;2023-12-20T16:16:18;16.67;;;7.47;;
75890;SDS011;64571;47.512;19.054;2023-12-20T16:19:21;12.95;;;6.12;;
75890;SDS011;64571;47.512;19.054;2023-12-20T16:22:32;15.85;;;7.00;;
75890;SDS011;64571;47.512;19.054;2023-12-20T16:25:34;17.27;;;7.90;;
75890;SDS011;64571;47.512;19.054;2023-12-20T16:28:40;16.12;;;7.78;;
75890;SDS011;64571;47.512;19.054;2023-12-20T16:31:43;20.40;;;8.70;;
75890;SDS011;64571;47.512;19.054;2023-12-20T16:34:46;18.02;;;8.70;;
75890;SDS011;64571;47.512;19.054;2023-12-20T16:37:48;16.05;;;8.25;;
75890;SDS011;64571;47.512;19.054;2023-12-20T16:40:51;17.33;;;8.20;;
75890;SDS011;64571;47.512;19.054;2023-12-20T16:43:54;23.77;;;10.32;;
75890;SDS011;64571;47.512;19.054;2023-12-20T16:46:56;15.48;;;7.47;;
75890;SDS011;64571;47.512;19.054;2023-12-20T16:49:59;17.12;;;8.40;;
75890;SDS011;64571;47.512;19.054;2023-12-20T16:53:04;21.25;;;9.27;;
75890;SDS011;64571;47.512;19.054;2023-12-20T16:56:07;18.27;;;8.73;;
75890;SDS011;64571;47.512;19.054;2023-12-20T16:59:09;21.12;;;10.20;;
75890;SDS011;64571;47.512;19.054;2023-12-20T17:02:12;20.08;;;9.10;;
75890;SDS011;64571;47.512;19.054;2023-12-20T17:05:15;20.35;;;10.10;;
75890;SDS011;64571;47.512;19.054;2023-12-20T17:08:17;24.27;;;10.68;;
75890;SDS011;64571;47.512;19.054;2023-12-20T17:11:20;22.00;;;10.53;;
75890;SDS011;64571;47.512;19.054;2023-12-20T17:14:23;18.48;;;8.80;;
75890;SDS011;64571;47.512;19.054;2023-12-20T17:17:27;16.55;;;8.25;;
75890;SDS011;64571;47.512;19.054;2023-12-20T17:20:29;19.20;;;9.55;;
75890;SDS011;64571;47.512;19.054;2023-12-20T17:23:33;23.45;;;10.40;;
75890;SDS011;64571;47.512;19.054;2023-12-20T17:26:36;25.07;;;10.63;;
75890;SDS011;64571;47.512;19.054;2023-12-20T17:29:39;23.65;;;11.55;;
75890;SDS011;64571;47.512;19.054;2023-12-20T17:32:41;25.08;;;12.55;;
75890;SDS011;64571;47.512;19.054;2023-12-20T17:35:51;24.98;;;11.32;;
75890;SDS011;64571;47.512;19.054;2023-12-20T17:38:57;28.25;;;11.48;;
75890;SDS011;64571;47.512;19.054;2023-12-20T17:42:00;25.90;;;10.13;;